Time;durP1;ratioP1;P1;durP2;ratioP2;P2;SDS_P1;SDS_P2;PMS_P1;PMS_P2;Temp;Humidity;BMP_temperature;BMP_pressure;BME280_temperature;BME280_humidity;BME280_pressure;Samples;Min_cycle;Max_cycle;Signal;HPM_P1;HPM_P2
2022/05/29 00:00:38;;;;;;;10.77;4.18;;;;;;;9.10;76.55;101763.88;5086210;28;20103;-65
2022/05/29 00:03:04;;;;;;;12.00;4.10;;;;;;;9.24;76.20;101754.38;5085801;28;20071;-65
2022/05/29 00:05:29;;;;;;;14.02;4.38;;;;;;;9.10;76.70;101750.94;5062027;28;20047;-66
2022/05/29 00:07:56;;;;;;;12.15;3.92;;;;;;;9.16;76.81;101750.56;5079933;28;20354;-64
2022/05/29 00:10:22;;;;;;;11.77;4.05;;;;;;;9.21;76.88;101740.78;5074348;28;20106;-64
2022/05/29 00:12:47;;;;;;;10.85;4.53;;;;;;;9.27;77.45;101745.56;5082343;28;20412;-66
2022/05/29 00:15:13;;;;;;;10.45;4.35;;;;;;;9.20;76.91;101744.28;5066176;28;20039;-64
2022/05/29 00:17:39;;;;;;;10.70;4.15;;;;;;;9.26;76.49;101749.09;5081399;28;20520;-65
2022/05/29 00:20:05;;;;;;;11.77;4.20;;;;;;;9.16;76.63;101737.63;5082084;28;20166;-67
2022/05/29 00:22:32;;;;;;;11.43;4.40;;;;;;;9.23;76.09;101733.72;5063345;28;20024;-64
2022/05/29 00:24:57;;;;;;;12.27;4.82;;;;;;;9.19;76.66;101733.09;5071821;28;20066;-64
2022/05/29 00:27:23;;;;;;;11.57;4.85;;;;;;;9.11;76.84;101729.31;5038299;28;20036;-65
2022/05/29 00:29:49;;;;;;;11.68;4.72;;;;;;;9.14;76.97;101739.50;5085213;28;20020;-64
2022/05/29 00:32:15;;;;;;;11.75;4.60;;;;;;;9.15;77.25;101736.78;5075657;28;20048;-66
2022/05/29 00:34:40;;;;;;;11.48;5.32;;;;;;;9.07;77.11;101733.03;5067251;28;20032;-66
2022/05/29 00:37:09;;;;;;;11.95;5.40;;;;;;;9.12;77.07;101726.66;5083426;28;20123;-65
2022/05/29 00:39:35;;;;;;;16.05;7.68;;;;;;;9.02;76.78;101728.97;5084582;28;20078;-66
2022/05/29 00:42:10;;;;;;;14.82;7.75;;;;;;;9.01;76.77;101724.72;5086628;28;20367;-64
2022/05/29 00:44:36;;;;;;;13.93;7.55;;;;;;;9.02;76.78;101731.53;5084549;28;20056;-65
2022/05/29 00:47:16;;;;;;;12.00;7.55;;;;;;;9.03;76.80;101733.19;5080251;28;20024;-64
2022/05/29 00:49:44;;;;;;;12.68;7.43;;;;;;;9.07;76.37;101720.09;5081444;28;20036;-65
2022/05/29 00:52:16;;;;;;;14.30;7.55;;;;;;;8.99;76.87;101721.38;5080439;28;20115;-64
2022/05/29 00:55:10;;;;;;;13.27;7.47;;;;;;;9.02;76.38;101721.19;5083895;28;20020;-65
2022/05/29 00:57:43;;;;;;;12.93;7.32;;;;;;;9.00;76.67;101717.88;5086051;28;20028;-65
2022/05/29 01:00:15;;;;;;;13.30;7.20;;;;;;;8.92;76.71;101714.91;5083069;28;20035;-65
2022/05/29 01:02:43;;;;;;;13.02;7.30;;;;;;;8.85;77.10;101713.63;5086002;28;20032;-66
2022/05/29 01:05:11;;;;;;;12.63;6.60;;;;;;;9.03;76.55;101712.50;5065869;28;20527;-66
2022/05/29 01:07:36;;;;;;;12.82;6.95;;;;;;;8.98;76.47;101708.53;5086078;28;20044;-65
2022/05/29 01:10:04;;;;;;;12.00;6.25;;;;;;;8.88;76.58;101703.06;5080812;28;20468;-64
2022/05/29 01:13:05;;;;;;;12.10;6.10;;;;;;;8.92;77.14;101704.56;5083951;28;20036;-65
2022/05/29 01:15:51;;;;;;;11.88;5.28;;;;;;;8.86;77.38;101694.56;5072417;28;20064;-65
2022/05/29 01:18:30;;;;;;;11.95;5.40;;;;;;;8.97;76.78;101697.34;5083222;28;20082;-64
2022/05/29 01:20:58;;;;;;;12.02;5.03;;;;;;;8.99;76.25;101695.50;5074380;28;20110;-64
2022/05/29 01:23:37;;;;;;;10.70;5.20;;;;;;;8.88;76.89;101692.72;5083996;28;20110;-64
2022/05/29 01:26:24;;;;;;;10.65;4.60;;;;;;;8.75;77.56;101687.47;5078842;28;20026;-64
2022/05/29 01:28:54;;;;;;;9.82;4.72;;;;;;;8.80;77.68;101694.13;5065627;28;20020;-64
2022/05/29 01:31:56;;;;;;;10.23;4.93;;;;;;;8.97;77.01;101686.16;5068568;28;20222;-65
2022/05/29 01:34:44;;;;;;;12.40;5.20;;;;;;;8.81;77.41;101686.25;5079073;28;20110;-65
2022/05/29 01:37:21;;;;;;;11.70;5.25;;;;;;;8.81;77.30;101680.25;5049605;28;20420;-66
2022/05/29 01:40:08;;;;;;;11.65;5.55;;;;;;;8.82;77.39;101682.75;5081078;28;20406;-64
2022/05/29 01:42:49;;;;;;;12.23;5.28;;;;;;;8.77;77.29;101677.00;5068124;28;20028;-65
2022/05/29 01:45:53;;;;;;;12.18;5.35;;;;;;;8.74;78.13;101672.03;5065711;28;20060;-67
2022/05/29 01:48:26;;;;;;;11.73;5.00;;;;;;;8.84;76.86;101665.41;5071858;28;20032;-68
2022/05/29 01:50:59;;;;;;;13.90;5.32;;;;;;;8.71;77.73;101669.63;5068395;28;20039;-66
2022/05/29 01:53:32;;;;;;;11.35;5.30;;;;;;;8.85;76.96;101667.06;5083734;28;20020;-64
2022/05/29 01:56:04;;;;;;;12.45;5.70;;;;;;;8.74;77.88;101659.13;5080788;28;20026;-65
2022/05/29 01:58:35;;;;;;;13.68;5.20;;;;;;;8.92;77.43;101652.81;5082524;28;20051;-65
2022/05/29 02:01:02;;;;;;;12.18;5.32;;;;;;;8.82;77.65;101656.88;5076489;28;20032;-66
2022/05/29 02:03:34;;;;;;;13.10;5.70;;;;;;;8.81;77.67;101665.56;5077165;28;20123;-65
2022/05/29 02:06:07;;;;;;;13.70;5.90;;;;;;;8.67;78.49;101660.41;5065210;28;20029;-64
2022/05/29 02:08:45;;;;;;;8.88;4.97;;;;;;;8.70;78.07;101657.63;5038338;28;20028;-64
2022/05/29 02:11:15;;;;;;;12.32;5.10;;;;;;;8.84;77.58;101649.88;5082590;28;20035;-67
2022/05/29 02:13:53;;;;;;;12.30;5.00;;;;;;;8.78;78.15;101655.44;5079484;28;20042;-65
2022/05/29 02:16:27;;;;;;;9.07;4.67;;;;;;;8.78;78.09;101650.25;5069189;28;20291;-65
2022/05/29 02:19:01;;;;;;;11.38;4.38;;;;;;;8.86;78.37;101660.94;5073772;28;20085;-65
2022/05/29 02:21:29;;;;;;;10.00;4.03;;;;;;;8.85;77.54;101656.72;5070566;28;20515;-64
2022/05/29 02:23:58;;;;;;;12.70;4.72;;;;;;;8.78;77.48;101645.91;5066658;28;20043;-65
2022/05/29 02:26:29;;;;;;;12.82;4.75;;;;;;;8.83;77.49;101644.78;5059058;28;20335;-65
2022/05/29 02:29:00;;;;;;;12.07;4.60;;;;;;;8.79;77.40;101636.38;5077685;28;20044;-65
2022/05/29 02:31:41;;;;;;;12.07;4.50;;;;;;;8.83;77.59;101643.03;5077661;28;20267;-64
2022/05/29 02:34:18;;;;;;;11.43;4.53;;;;;;;8.89;77.00;101642.66;5073087;28;20040;-64
2022/05/29 02:37:03;;;;;;;14.15;5.00;;;;;;;8.80;77.81;101632.88;5081750;28;20016;-64
2022/05/29 02:39:54;;;;;;;10.65;4.63;;;;;;;8.87;77.94;101639.31;5056222;28;20406;-64
2022/05/29 02:42:29;;;;;;;12.30;5.00;;;;;;;8.79;78.26;101631.22;5073488;28;20528;-64
2022/05/29 02:45:18;;;;;;;12.75;5.07;;;;;;;8.89;78.36;101632.31;5084512;28;20058;-64
2022/05/29 02:47:56;;;;;;;12.93;5.05;;;;;;;8.93;77.78;101618.25;5072769;28;20475;-64
2022/05/29 02:50:47;;;;;;;10.85;4.70;;;;;;;8.87;77.93;101618.63;5069620;28;20093;-65
2022/05/29 02:53:15;;;;;;;12.48;5.13;;;;;;;8.81;78.99;101619.00;5065646;28;20020;-67
2022/05/29 02:55:43;;;;;;;13.60;5.22;;;;;;;8.89;78.71;101611.63;5062608;28;20043;-66
2022/05/29 02:58:18;;;;;;;11.32;5.10;;;;;;;8.86;78.78;101613.56;5077505;28;20100;-66
2022/05/29 03:00:51;;;;;;;10.85;5.20;;;;;;;8.79;79.66;101613.09;5078409;28;20034;-66
2022/05/29 03:04:04;;;;;;;14.45;5.82;;;;;;;8.92;78.53;101616.59;5083855;28;20024;-64
2022/05/29 03:06:42;;;;;;;14.25;6.03;;;;;;;8.86;79.04;101619.56;4981083;28;20422;-66
2022/05/29 03:09:07;;;;;;;13.23;5.50;;;;;;;8.81;79.15;101624.19;4982673;28;20566;-67
2022/05/29 03:11:40;;;;;;;15.95;6.18;;;;;;;8.83;79.91;101630.13;4966850;28;20045;-64
2022/05/29 03:14:14;;;;;;;13.23;6.40;;;;;;;8.84;80.60;101631.78;4959633;28;20061;-64
2022/05/29 03:17:09;;;;;;;11.60;5.85;;;;;;;8.77;81.87;101633.91;4983770;28;20390;-65
2022/05/29 03:19:55;;;;;;;14.63;5.75;;;;;;;8.60;81.89;101635.81;4971877;28;20030;-66
2022/05/29 03:22:49;;;;;;;13.43;5.75;;;;;;;8.59;82.58;101622.06;4974857;28;20042;-65
2022/05/29 03:25:38;;;;;;;12.88;5.07;;;;;;;8.62;83.43;101629.66;4982958;28;20030;-65
2022/05/29 03:28:27;;;;;;;11.73;5.50;;;;;;;8.48;83.89;101620.13;4985382;28;20034;-67
2022/05/29 03:30:54;;;;;;;10.65;4.88;;;;;;;8.61;83.89;101616.81;4974364;28;20050;-65
2022/05/29 03:33:20;;;;;;;12.38;4.70;;;;;;;8.50;84.41;101620.06;4982180;28;20038;-65
2022/05/29 03:35:45;;;;;;;11.98;4.88;;;;;;;8.50;84.46;101623.47;4982854;28;20475;-66
2022/05/29 03:38:11;;;;;;;12.50;5.28;;;;;;;8.60;83.84;101625.47;4984080;28;20501;-65
2022/05/29 03:40:37;;;;;;;11.80;5.30;;;;;;;8.45;83.93;101597.06;4980540;28;20049;-67
2022/05/29 03:43:03;;;;;;;9.57;5.07;;;;;;;8.52;84.27;101618.19;5066449;28;20046;-65
2022/05/29 03:45:29;;;;;;;12.27;4.93;;;;;;;8.52;84.21;101615.59;5081450;28;20044;-66
2022/05/29 03:47:55;;;;;;;11.57;5.30;;;;;;;8.47;84.97;101618.47;5083855;28;20028;-66
2022/05/29 03:50:22;;;;;;;9.43;4.57;;;;;;;8.47;84.89;101615.06;5054556;28;20479;-66
2022/05/29 03:52:48;;;;;;;11.27;4.78;;;;;;;8.48;84.96;101602.03;5083687;28;20109;-66
2022/05/29 03:55:15;;;;;;;12.13;5.68;;;;;;;8.52;85.07;101616.44;5086190;28;20024;-65
2022/05/29 03:57:41;;;;;;;11.65;5.60;;;;;;;8.49;85.31;101603.72;5070853;28;20024;-66
2022/05/29 04:00:10;;;;;;;10.32;5.18;;;;;;;8.48;84.95;101617.53;5075078;28;20040;-66
2022/05/29 04:02:35;;;;;;;;;;;;;;;8.68;83.53;101602.59;5083853;28;20556;-66
2022/05/29 04:05:01;;;;;;;9.87;4.53;;;;;;;8.56;85.03;101593.81;5070515;28;20002;-66
2022/05/29 04:12:55;;;;;;;9.88;3.95;;;;;;;8.49;85.42;101598.53;5083308;28;20042;-66
2022/05/29 04:15:20;;;;;;;9.23;4.25;;;;;;;8.48;85.44;101591.69;5075064;28;20020;-65
2022/05/29 04:17:46;;;;;;;7.13;2.92;;;;;;;8.48;85.51;101586.50;5074114;28;20031;-66
2022/05/29 04:20:11;;;;;;;6.43;3.20;;;;;;;8.52;85.98;101588.00;5079232;28;20024;-66
2022/05/29 04:22:36;;;;;;;4.88;2.50;;;;;;;8.46;85.60;101590.97;5084389;28;20059;-65
2022/05/29 04:25:02;;;;;;;4.82;2.40;;;;;;;8.49;85.49;101598.53;5070015;28;20453;-65
2022/05/29 04:27:27;;;;;;;5.18;2.00;;;;;;;8.48;85.32;101591.69;5084106;28;20376;-65
2022/05/29 04:29:53;;;;;;;6.10;2.15;;;;;;;8.57;84.92;101594.66;5085378;28;20073;-65
2022/05/29 04:35:02;;;;;;;4.75;2.63;;;;;;;8.46;85.96;101593.53;5079480;28;20050;-65
2022/05/29 04:37:28;;;;;;;6.55;2.60;;;;;;;8.58;86.51;101591.13;5074431;28;20108;-65
2022/05/29 04:39:54;;;;;;;6.15;2.60;;;;;;;8.47;86.65;101578.84;5087360;28;20518;-67
2022/05/29 04:42:19;;;;;;;7.32;3.00;;;;;;;8.50;87.32;101579.50;5082150;28;20027;-66
2022/05/29 04:44:45;;;;;;;6.40;2.90;;;;;;;8.59;87.37;101572.09;5086579;28;20052;-65
2022/05/29 04:47:10;;;;;;;7.82;3.03;;;;;;;8.63;86.99;101563.25;5081374;28;20028;-65
2022/05/29 04:49:37;;;;;;;7.05;3.72;;;;;;;8.64;86.73;101570.91;5066485;28;20074;-65
2022/05/29 04:52:05;;;;;;;8.60;4.07;;;;;;;8.69;86.25;101568.88;5079585;28;20036;-67
2022/05/29 04:54:33;;;;;;;9.63;4.07;;;;;;;8.66;86.88;101573.38;5078395;28;20590;-66
2022/05/29 04:56:58;;;;;;;9.60;4.20;;;;;;;8.67;86.91;101564.72;5076586;28;20028;-65
2022/05/29 04:59:23;;;;;;;10.38;5.45;;;;;;;8.77;86.75;101560.63;5074746;28;20460;-65
2022/05/29 05:01:49;;;;;;;10.05;6.13;;;;;;;8.72;87.16;101555.75;5085430;28;20043;-65
2022/05/29 05:04:14;;;;;;;10.73;6.20;;;;;;;8.80;87.78;101565.63;5083381;28;20040;-65
2022/05/29 05:06:39;;;;;;;12.63;6.22;;;;;;;8.85;86.56;101568.75;5084045;28;20032;-65
2022/05/29 05:09:05;;;;;;;10.32;5.78;;;;;;;8.80;86.33;101560.44;5057205;28;20358;-65
2022/05/29 05:11:31;;;;;;;9.20;5.15;;;;;;;8.78;86.02;101567.47;5062652;28;20480;-66
2022/05/29 05:13:57;;;;;;;10.55;5.40;;;;;;;8.84;86.40;101561.94;5084153;28;20032;-65
2022/05/29 05:16:23;;;;;;;10.20;4.82;;;;;;;8.84;85.38;101561.94;5078334;28;20039;-65
2022/05/29 05:18:48;;;;;;;9.93;4.40;;;;;;;8.85;85.66;101566.16;5084877;28;20455;-65
2022/05/29 05:21:13;;;;;;;7.43;4.03;;;;;;;8.72;85.73;101557.53;5086377;28;20503;-65
2022/05/29 05:23:40;;;;;;;7.95;4.25;;;;;;;8.68;85.31;101556.88;5083115;28;20082;-65
2022/05/29 05:26:10;;;;;;;7.72;4.15;;;;;;;8.72;85.51;101575.63;5085658;28;20478;-66
2022/05/29 05:28:35;;;;;;;8.30;4.07;;;;;;;8.79;85.58;101574.31;5071928;28;20020;-65
2022/05/29 05:31:01;;;;;;;7.82;3.50;;;;;;;8.74;84.91;101566.00;5059745;28;20029;-65
2022/05/29 05:33:26;;;;;;;7.57;3.42;;;;;;;8.81;85.11;101562.09;5063637;28;20028;-65
2022/05/29 05:35:51;;;;;;;8.18;3.40;;;;;;;8.85;85.51;101563.59;5055899;28;20477;-65
2022/05/29 05:38:16;;;;;;;8.50;3.65;;;;;;;8.98;85.60;101564.47;5064317;28;20467;-65
2022/05/29 05:40:42;;;;;;;10.00;3.80;;;;;;;8.95;85.43;101559.50;5066019;28;20357;-65
2022/05/29 05:43:08;;;;;;;9.18;3.92;;;;;;;9.05;86.01;101567.50;5065751;28;20118;-64
2022/05/29 05:45:33;;;;;;;7.93;4.10;;;;;;;9.00;86.24;101562.63;5080134;28;20036;-65
2022/05/29 05:47:59;;;;;;;9.43;4.60;;;;;;;9.10;86.36;101562.03;5074920;28;20323;-65
2022/05/29 05:50:24;;;;;;;9.50;4.00;;;;;;;9.11;86.10;101559.34;5080910;28;20629;-65
2022/05/29 05:52:49;;;;;;;8.48;4.20;;;;;;;9.04;86.54;101548.56;5081995;28;20032;-65
2022/05/29 05:55:15;;;;;;;9.90;4.90;;;;;;;9.17;87.19;101558.13;5075734;28;20521;-65
2022/05/29 05:57:40;;;;;;;8.38;4.55;;;;;;;9.15;86.69;101549.63;5077516;28;20064;-65
2022/05/29 06:00:11;;;;;;;11.30;5.60;;;;;;;9.14;87.25;101561.75;5083879;28;20433;-65
2022/05/29 06:02:39;;;;;;;10.50;4.90;;;;;;;9.29;87.32;101562.53;5083487;28;20141;-65
2022/05/29 06:05:04;;;;;;;11.32;5.20;;;;;;;9.29;87.05;101559.94;5075390;28;20027;-65
2022/05/29 06:07:30;;;;;;;10.38;5.25;;;;;;;9.31;86.90;101552.91;5084455;28;20032;-65
2022/05/29 06:09:55;;;;;;;8.73;5.10;;;;;;;9.39;87.47;101562.75;5078841;28;20488;-64
2022/05/29 06:12:21;;;;;;;9.65;5.07;;;;;;;9.32;86.79;101557.97;5077225;28;20032;-64
2022/05/29 06:14:48;;;;;;;10.52;5.10;;;;;;;9.46;87.33;101562.28;5068426;28;20618;-65
2022/05/29 06:17:14;;;;;;;9.68;5.13;;;;;;;9.46;86.46;101564.84;5073828;28;20032;-65
2022/05/29 06:19:40;;;;;;;9.55;4.90;;;;;;;9.49;86.66;101567.22;5083576;28;20031;-65
2022/05/29 06:22:07;;;;;;;9.13;4.38;;;;;;;9.46;86.55;101572.63;5077148;28;20032;-68
2022/05/29 06:24:33;;;;;;;10.13;4.60;;;;;;;9.47;86.48;101574.28;5078453;28;20024;-65
2022/05/29 06:26:59;;;;;;;9.85;4.45;;;;;;;9.45;87.34;101568.34;5074105;28;20029;-65
2022/05/29 06:29:25;;;;;;;9.57;4.03;;;;;;;9.55;87.16;101566.00;5085052;28;20296;-67
2022/05/29 06:31:50;;;;;;;9.95;4.30;;;;;;;9.58;87.11;101569.22;5081668;28;20103;-65
2022/05/29 06:34:15;;;;;;;10.27;4.53;;;;;;;9.58;87.02;101564.06;5081184;28;20118;-65
2022/05/29 06:36:41;;;;;;;11.02;4.70;;;;;;;9.56;87.70;101555.53;5046021;28;20461;-66
2022/05/29 06:39:06;;;;;;;9.55;4.63;;;;;;;9.65;86.58;101563.66;5071968;28;20482;-66
2022/05/29 06:41:33;;;;;;;11.38;4.78;;;;;;;9.68;86.86;101559.06;5085127;28;20031;-65
2022/05/29 06:43:59;;;;;;;9.30;4.72;;;;;;;9.63;85.93;101565.50;5068870;28;20040;-65
2022/05/29 06:46:24;;;;;;;9.10;5.25;;;;;;;9.72;86.77;101559.72;5067039;28;20035;-65
2022/05/29 06:48:50;;;;;;;9.60;4.88;;;;;;;9.70;86.07;101551.22;5083135;28;20488;-65
2022/05/29 06:51:21;;;;;;;10.38;4.82;;;;;;;9.82;86.56;101565.94;5063858;28;20031;-65
2022/05/29 06:53:49;;;;;;;9.07;4.63;;;;;;;9.90;86.37;101553.31;5070200;28;20512;-65
2022/05/29 06:56:15;;;;;;;8.75;4.68;;;;;;;9.92;86.02;101560.97;5081023;28;20031;-66
2022/05/29 06:58:41;;;;;;;8.80;4.53;;;;;;;9.94;86.77;101559.94;5078900;28;20503;-68
2022/05/29 07:09:23;;;;;;;9.00;4.20;;;;;;;10.13;86.05;101569.06;5079600;28;20039;-69
2022/05/29 07:11:53;;;;;;;10.48;4.60;;;;;;;10.14;86.17;101563.78;5076547;28;20077;-65
2022/05/29 07:14:19;;;;;;;9.18;4.25;;;;;;;10.20;85.16;101559.94;5076640;28;20031;-65
2022/05/29 07:16:44;;;;;;;11.07;4.93;;;;;;;10.18;85.11;101561.81;5084453;28;20028;-66
2022/05/29 07:19:10;;;;;;;8.55;4.50;;;;;;;10.24;84.65;101566.59;5087820;28;20048;-65
2022/05/29 07:21:38;;;;;;;9.70;4.85;;;;;;;10.20;83.85;101562.53;5081163;28;20114;-65
2022/05/29 07:24:04;;;;;;;9.73;4.68;;;;;;;10.33;85.02;101560.81;5074274;28;20358;-66
2022/05/29 07:26:30;;;;;;;11.02;5.00;;;;;;;10.34;84.73;101552.91;5086092;28;20111;-65
2022/05/29 07:28:55;;;;;;;11.73;5.03;;;;;;;10.44;85.13;101553.13;5068359;28;20317;-65
2022/05/29 07:31:20;;;;;;;11.63;5.93;;;;;;;10.46;84.97;101551.22;5070121;28;20385;-64
2022/05/29 07:33:45;;;;;;;12.07;5.43;;;;;;;10.48;84.46;101551.94;5053622;28;20157;-65
2022/05/29 07:36:12;;;;;;;10.98;5.35;;;;;;;10.43;82.81;101545.41;5082446;28;20056;-67
2022/05/29 07:38:39;;;;;;;12.82;5.22;;;;;;;10.42;83.48;101549.78;5068704;28;20491;-64
2022/05/29 07:43:18;;;;;;;12.82;5.50;;;;;;;10.54;84.14;101553.28;5079251;28;20545;-65
2022/05/29 07:43:53;;;;;;;12.15;4.95;;;;;;;10.54;82.94;101554.09;5070418;28;20055;-65
2022/05/29 07:46:19;;;;;;;10.38;4.55;;;;;;;10.54;81.86;101541.13;5085220;28;20024;-65
2022/05/29 07:48:45;;;;;;;10.10;3.92;;;;;;;10.57;82.25;101546.13;5085424;28;20418;-65
2022/05/29 07:51:10;;;;;;;8.50;3.45;;;;;;;10.56;81.28;101541.88;5074086;28;20434;-69
2022/05/29 07:53:37;;;;;;;11.80;3.67;;;;;;;10.58;80.42;101537.41;5073463;28;20117;-65
2022/05/29 07:56:03;;;;;;;11.35;4.18;;;;;;;10.64;80.95;101538.75;5078853;28;20024;-69
2022/05/29 07:58:28;;;;;;;11.93;3.70;;;;;;;10.66;80.92;101541.22;5073141;28;20040;-64
2022/05/29 08:00:53;;;;;;;10.77;3.45;;;;;;;10.77;80.70;101543.88;5069688;28;20487;-66
2022/05/29 08:03:21;;;;;;;11.93;3.53;;;;;;;10.80;79.90;101538.50;5077017;28;20464;-64
2022/05/29 08:05:46;;;;;;;10.30;3.58;;;;;;;10.75;78.85;101540.56;5077746;28;20056;-65
2022/05/29 08:08:13;;;;;;;10.65;3.67;;;;;;;10.78;78.75;101535.16;5072096;28;20105;-65
2022/05/29 08:10:40;;;;;;;10.88;3.60;;;;;;;10.74;78.60;101538.94;5077173;28;20032;-66
2022/05/29 08:13:06;;;;;;;10.77;3.50;;;;;;;10.75;77.74;101525.00;5073083;28;20035;-65
2022/05/29 08:15:32;;;;;;;10.38;3.15;;;;;;;10.86;79.01;101532.88;5081955;28;20403;-65
2022/05/29 08:17:57;;;;;;;9.30;3.22;;;;;;;10.95;78.62;101527.00;5084140;28;20035;-64
2022/05/29 08:20:23;;;;;;;10.27;3.55;;;;;;;10.97;78.32;101525.13;5086636;28;20016;-65
2022/05/29 08:22:48;;;;;;;10.43;3.10;;;;;;;10.94;77.06;101519.31;5079867;28;20119;-66
2022/05/29 08:30:51;;;;;;;6.47;2.50;;;;;;;11.06;76.23;101534.00;5074253;28;20605;-64
2022/05/29 08:33:25;;;;;;;8.88;2.50;;;;;;;11.11;77.11;101537.09;5071371;28;20016;-65
2022/05/29 08:35:57;;;;;;;10.45;2.60;;;;;;;11.10;74.98;101531.09;5080339;28;20028;-65
2022/05/29 08:38:23;;;;;;;8.05;2.40;;;;;;;11.07;75.02;101533.09;5071420;28;20055;-64
2022/05/29 08:40:53;;;;;;;6.88;2.10;;;;;;;11.05;74.32;101528.00;5073443;28;20064;-68
2022/05/29 08:43:33;;;;;;;8.50;2.17;;;;;;;11.04;74.48;101525.53;5086089;28;20032;-65
2022/05/29 08:46:05;;;;;;;8.15;2.40;;;;;;;11.01;75.56;101530.91;5078603;28;20115;-65
2022/05/29 08:48:30;;;;;;;8.30;2.47;;;;;;;10.99;76.25;101531.03;5078129;28;20066;-65
2022/05/29 08:51:37;;;;;;;6.70;2.40;;;;;;;10.96;77.14;101528.69;5074598;28;20027;-67
2022/05/29 08:54:27;;;;;;;6.25;2.20;;;;;;;10.86;78.36;101532.88;5057403;28;20116;-66
2022/05/29 08:57:29;;;;;;;8.45;2.85;;;;;;;10.81;78.11;101527.16;5077699;28;20069;-67
2022/05/29 09:00:00;;;;;;;10.95;3.10;;;;;;;10.78;80.66;101527.38;5073982;28;20036;-67
2022/05/29 09:02:46;;;;;;;7.68;2.50;;;;;;;10.77;80.10;101528.31;5078442;28;20024;-66
2022/05/29 09:05:38;;;;;;;10.02;2.88;;;;;;;10.83;81.68;101522.69;5057418;28;20406;-66
2022/05/29 09:08:09;;;;;;;8.90;2.72;;;;;;;10.90;80.60;101518.75;5069860;28;20040;-66
2022/05/29 09:10:43;;;;;;;9.77;2.88;;;;;;;11.08;80.54;101517.41;5075107;28;20036;-67
2022/05/29 09:13:24;;;;;;;9.45;2.88;;;;;;;11.22;80.05;101507.78;5063293;28;20020;-66
2022/05/29 09:15:56;;;;;;;7.60;2.85;;;;;;;11.34;81.36;101517.25;5085646;28;20031;-66
2022/05/29 09:18:32;;;;;;;8.65;2.83;;;;;;;11.39;80.51;101509.94;5071041;28;20465;-69
2022/05/29 09:21:21;;;;;;;7.22;2.70;;;;;;;11.51;80.39;101503.00;5081361;28;20063;-68
2022/05/29 09:24:02;;;;;;;6.25;1.92;;;;;;;11.59;78.67;101496.31;5072433;28;20030;-68
2022/05/29 09:26:35;;;;;;;7.65;2.03;;;;;;;11.80;80.65;101496.44;5083575;28;20524;-68
2022/05/29 09:29:00;;;;;;;9.23;1.95;;;;;;;11.80;77.83;101493.03;5079211;28;20111;-68
2022/05/29 09:31:26;;;;;;;6.25;2.00;;;;;;;11.80;75.57;101503.41;5068527;28;20135;-68
2022/05/29 09:33:52;;;;;;;7.45;2.20;;;;;;;11.79;74.04;101491.38;5077633;28;20051;-68
2022/05/29 09:37:16;;;;;;;6.78;2.00;;;;;;;11.95;75.43;101491.91;5077161;28;20052;-68
2022/05/29 09:39:45;;;;;;;7.68;1.90;;;;;;;11.87;73.26;101499.44;5021091;28;20183;-67
2022/05/29 09:42:33;;;;;;;6.97;1.75;;;;;;;11.88;74.66;101506.31;5017710;28;20071;-70
2022/05/29 09:45:15;;;;;;;5.35;1.38;;;;;;;11.40;76.04;101511.59;5020728;28;20091;-70
2022/05/29 09:50:53;;;;;;;5.18;1.20;;;;;;;10.95;78.88;101516.63;5021013;28;20055;-71
2022/05/29 09:53:29;;;;;;;4.88;1.33;;;;;;;10.61;79.37;101521.63;5020352;28;20022;-71
2022/05/29 09:55:58;;;;;;;6.63;1.40;;;;;;;10.57;80.87;101509.81;5009484;28;20373;-70
2022/05/29 09:58:28;;;;;;;5.25;1.42;;;;;;;10.56;81.87;101509.94;5015260;28;20038;-70
2022/05/29 10:00:58;;;;;;;5.35;1.30;;;;;;;10.45;79.88;101508.09;5002760;28;20030;-71
2022/05/29 10:03:43;;;;;;;4.68;1.30;;;;;;;10.56;81.33;101510.75;5030695;28;20080;-70
2022/05/29 10:06:14;;;;;;;4.97;1.52;;;;;;;10.42;81.51;101503.09;5008514;28;20057;-70
2022/05/29 10:08:40;;;;;;;4.32;1.52;;;;;;;10.47;82.10;101501.00;5026592;28;20088;-70
2022/05/29 10:11:16;;;;;;;5.95;1.70;;;;;;;10.49;82.57;101504.31;5055416;28;20516;-70
2022/05/29 10:13:43;;;;;;;4.35;1.35;;;;;;;10.61;81.80;101498.28;5083458;28;20031;-71
2022/05/29 10:16:10;;;;;;;5.60;1.75;;;;;;;10.66;81.50;101499.72;5072373;28;20029;-71
2022/05/29 10:18:38;;;;;;;5.00;1.33;;;;;;;10.80;84.02;101502.16;5082717;28;20031;-71
2022/05/29 10:21:21;;;;;;;6.30;1.70;;;;;;;10.77;82.27;101482.44;5084164;28;20027;-71
2022/05/29 10:23:52;;;;;;;6.00;1.50;;;;;;;10.82;82.39;101488.13;5084708;28;20028;-70
2022/05/29 10:26:32;;;;;;;4.95;1.38;;;;;;;10.89;83.18;101491.09;5087659;28;20073;-71
2022/05/29 10:28:58;;;;;;;5.88;1.70;;;;;;;11.04;83.42;101495.19;5076209;28;20059;-70
2022/05/29 10:31:27;;;;;;;4.53;1.60;;;;;;;11.17;82.63;101495.94;5073757;28;20107;-71
2022/05/29 10:34:00;;;;;;;;;;;;;;;11.38;81.65;101488.34;5073047;28;20073;-70
2022/05/29 10:36:28;;;;;;;7.28;1.95;;;;;;;11.53;82.88;101480.38;5084734;28;19916;-70
2022/05/29 10:39:13;;;;;;;6.18;1.70;;;;;;;11.62;81.97;101474.47;5079020;28;20535;-70
2022/05/29 10:41:41;;;;;;;5.32;1.55;;;;;;;11.74;80.39;101472.69;5074820;28;20044;-70
2022/05/29 10:44:10;;;;;;;6.32;1.60;;;;;;;11.91;81.24;101470.50;5086757;28;20146;-72
2022/05/29 10:47:11;;;;;;;5.43;1.60;;;;;;;11.94;79.06;101477.25;5061700;28;20348;-70
2022/05/29 10:50:11;;;;;;;5.28;1.10;;;;;;;11.79;76.57;101491.38;5072536;28;20523;-71
2022/05/29 10:53:05;;;;;;;2.67;0.75;;;;;;;11.60;76.54;101497.97;5083333;28;20028;-71
2022/05/29 10:55:40;;;;;;;2.03;0.65;;;;;;;11.30;78.23;101501.09;5066535;28;20028;-71
2022/05/29 10:58:32;;;;;;;2.53;0.60;;;;;;;11.30;76.86;101489.88;5069300;28;20027;-72
2022/05/29 11:00:57;;;;;;;3.08;0.60;;;;;;;11.23;78.55;101488.66;5076886;28;20303;-71
2022/05/29 11:03:40;;;;;;;2.35;0.73;;;;;;;11.34;79.61;101486.91;5086304;28;20031;-72
2022/05/29 11:06:15;;;;;;;4.15;0.80;;;;;;;11.44;77.57;101481.88;5066566;28;20031;-71
2022/05/29 11:09:02;;;;;;;3.60;1.20;;;;;;;11.57;79.10;101482.59;5061691;28;20033;-71
2022/05/29 11:11:39;;;;;;;4.07;1.35;;;;;;;11.84;80.29;101478.91;5084581;28;20113;-71
2022/05/29 11:14:27;;;;;;;6.82;1.80;;;;;;;12.12;81.33;101477.59;5088815;28;20445;-70
2022/05/29 11:17:10;;;;;;;6.28;1.80;;;;;;;12.32;80.29;101478.63;5083527;28;20371;-70
2022/05/29 11:20:00;;;;;;;6.00;1.80;;;;;;;12.56;81.32;101471.50;5086924;28;20024;-71
2022/05/29 11:23:03;;;;;;;6.43;1.80;;;;;;;12.81;81.01;101469.53;5078302;28;20357;-70
2022/05/29 11:25:53;;;;;;;6.85;2.30;;;;;;;12.72;77.72;101469.31;5079090;28;20035;-70
2022/05/29 11:28:37;;;;;;;7.07;1.95;;;;;;;12.60;77.05;101461.66;5086030;28;20114;-70
2022/05/29 11:31:24;;;;;;;6.30;2.08;;;;;;;12.68;77.54;101460.13;5076885;28;20032;-70
2022/05/29 11:34:20;;;;;;;4.50;1.48;;;;;;;12.66;75.99;101459.41;5072276;28;20435;-71
2022/05/29 11:37:17;;;;;;;3.50;1.00;;;;;;;12.61;73.74;101464.13;5085214;28;20027;-70
2022/05/29 11:39:54;;;;;;;5.90;1.30;;;;;;;12.38;71.27;101465.13;5081246;28;20028;-69
2022/05/29 11:42:25;;;;;;;5.05;1.25;;;;;;;12.22;70.72;101461.16;5071633;28;20031;-69
2022/05/29 11:44:58;;;;;;;4.50;1.30;;;;;;;12.22;71.80;101453.34;5075273;28;20052;-70
2022/05/29 11:53:42;;;;;;;7.35;1.90;;;;;;;12.27;71.60;101449.53;5080776;28;20446;-69
2022/05/29 11:56:16;;;;;;;5.78;1.65;;;;;;;12.35;72.34;101428.97;5082173;28;20066;-69
2022/05/29 11:58:47;;;;;;;6.50;1.60;;;;;;;12.65;72.16;101439.53;5077171;28;20061;-69
2022/05/29 12:01:19;;;;;;;7.20;1.67;;;;;;;12.88;72.36;101440.28;5085290;28;20342;-69
2022/05/29 12:04:01;;;;;;;8.00;2.00;;;;;;;13.07;73.06;101429.16;5079387;28;20460;-70
2022/05/29 12:06:32;;;;;;;5.15;1.30;;;;;;;13.04;69.09;101445.06;5076101;28;20102;-69
2022/05/29 12:09:17;;;;;;;5.70;1.40;;;;;;;12.93;68.84;101432.09;5080010;28;20399;-68
2022/05/29 12:11:59;;;;;;;6.10;1.63;;;;;;;12.87;68.63;101432.59;5072954;28;20032;-70
2022/05/29 12:14:30;;;;;;;8.65;1.90;;;;;;;12.75;69.04;101440.44;5057193;28;20461;-70
2022/05/29 12:17:11;;;;;;;6.65;1.88;;;;;;;12.76;68.78;101420.44;5075255;28;20059;-70
2022/05/29 12:19:47;;;;;;;7.13;1.73;;;;;;;12.72;68.56;101430.25;5050771;28;20571;-69
2022/05/29 12:22:17;;;;;;;10.20;2.13;;;;;;;12.60;69.16;101420.84;5072833;28;20028;-69